sensor_id;sensor_type;location;lat;lon;timestamp;P1;durP1;ratioP1;P2;durP2;ratioP2
5831;SDS011;50943;51.448;7.646;2022-11-15T00:00:33;10.83;;;6.40;;
5831;SDS011;50943;51.448;7.646;2022-11-15T00:03:00;11.93;;;6.80;;
5831;SDS011;50943;51.448;7.646;2022-11-15T00:05:26;9.63;;;5.13;;
5831;SDS011;50943;51.448;7.646;2022-11-15T00:07:53;10.87;;;7.27;;
5831;SDS011;50943;51.448;7.646;2022-11-15T00:10:21;12.87;;;6.80;;
5831;SDS011;50943;51.448;7.646;2022-11-15T00:12:48;14.07;;;6.63;;
5831;SDS011;50943;51.448;7.646;2022-11-15T00:15:14;11.93;;;6.07;;
5831;SDS011;50943;51.448;7.646;2022-11-15T00:17:41;9.47;;;6.60;;
5831;SDS011;50943;51.448;7.646;2022-11-15T00:20:08;10.20;;;6.23;;
5831;SDS011;50943;51.448;7.646;2022-11-15T00:22:35;6.47;;;4.20;;
5831;SDS011;50943;51.448;7.646;2022-11-15T00:25:02;9.93;;;5.40;;
5831;SDS011;50943;51.448;7.646;2022-11-15T00:27:30;11.47;;;6.30;;
5831;SDS011;50943;51.448;7.646;2022-11-15T00:29:57;11.40;;;5.87;;
5831;SDS011;50943;51.448;7.646;2022-11-15T00:32:23;10.00;;;6.87;;
5831;SDS011;50943;51.448;7.646;2022-11-15T00:34:50;12.57;;;6.40;;
5831;SDS011;50943;51.448;7.646;2022-11-15T00:37:17;11.73;;;5.70;;
5831;SDS011;50943;51.448;7.646;2022-11-15T00:39:43;15.00;;;7.00;;
5831;SDS011;50943;51.448;7.646;2022-11-15T00:42:10;9.83;;;5.90;;
5831;SDS011;50943;51.448;7.646;2022-11-15T00:44:37;14.60;;;6.83;;
5831;SDS011;50943;51.448;7.646;2022-11-15T00:47:04;11.27;;;6.30;;
5831;SDS011;50943;51.448;7.646;2022-11-15T00:49:30;14.50;;;6.47;;
5831;SDS011;50943;51.448;7.646;2022-11-15T00:51:57;9.93;;;6.07;;
5831;SDS011;50943;51.448;7.646;2022-11-15T00:54:23;12.17;;;6.97;;
5831;SDS011;50943;51.448;7.646;2022-11-15T00:56:50;13.37;;;6.37;;
5831;SDS011;50943;51.448;7.646;2022-11-15T00:59:16;8.63;;;5.20;;
5831;SDS011;50943;51.448;7.646;2022-11-15T01:01:45;12.53;;;6.17;;
5831;SDS011;50943;51.448;7.646;2022-11-15T01:04:12;11.37;;;5.90;;
5831;SDS011;50943;51.448;7.646;2022-11-15T01:06:39;10.13;;;6.20;;
5831;SDS011;50943;51.448;7.646;2022-11-15T01:09:05;13.53;;;5.90;;
5831;SDS011;50943;51.448;7.646;2022-11-15T01:11:32;12.40;;;5.50;;
5831;SDS011;50943;51.448;7.646;2022-11-15T01:13:59;12.83;;;5.27;;
5831;SDS011;50943;51.448;7.646;2022-11-15T01:16:25;9.57;;;5.57;;
5831;SDS011;50943;51.448;7.646;2022-11-15T01:18:53;10.40;;;6.03;;
5831;SDS011;50943;51.448;7.646;2022-11-15T01:21:20;9.50;;;5.40;;
5831;SDS011;50943;51.448;7.646;2022-11-15T01:23:47;10.43;;;5.30;;
5831;SDS011;50943;51.448;7.646;2022-11-15T01:26:14;10.93;;;5.00;;
5831;SDS011;50943;51.448;7.646;2022-11-15T01:28:41;15.83;;;6.97;;
5831;SDS011;50943;51.448;7.646;2022-11-15T01:31:09;15.50;;;6.93;;
5831;SDS011;50943;51.448;7.646;2022-11-15T01:33:38;7.50;;;4.30;;
5831;SDS011;50943;51.448;7.646;2022-11-15T01:36:06;13.33;;;6.93;;
5831;SDS011;50943;51.448;7.646;2022-11-15T01:38:35;8.07;;;3.97;;
5831;SDS011;50943;51.448;7.646;2022-11-15T01:41:02;9.23;;;5.87;;
5831;SDS011;50943;51.448;7.646;2022-11-15T01:43:30;10.93;;;6.73;;
5831;SDS011;50943;51.448;7.646;2022-11-15T01:45:58;15.80;;;6.50;;
5831;SDS011;50943;51.448;7.646;2022-11-15T01:48:28;10.97;;;6.47;;
5831;SDS011;50943;51.448;7.646;2022-11-15T01:50:58;8.30;;;6.20;;
5831;SDS011;50943;51.448;7.646;2022-11-15T01:53:27;9.63;;;4.77;;
5831;SDS011;50943;51.448;7.646;2022-11-15T01:55:54;11.17;;;7.03;;
5831;SDS011;50943;51.448;7.646;2022-11-15T01:58:21;10.30;;;6.00;;
5831;SDS011;50943;51.448;7.646;2022-11-15T02:00:48;14.07;;;4.80;;
5831;SDS011;50943;51.448;7.646;2022-11-15T02:03:15;6.77;;;3.77;;
5831;SDS011;50943;51.448;7.646;2022-11-15T02:05:42;9.37;;;5.50;;
5831;SDS011;50943;51.448;7.646;2022-11-15T02:08:09;9.87;;;5.50;;
5831;SDS011;50943;51.448;7.646;2022-11-15T02:10:46;12.77;;;6.93;;
5831;SDS011;50943;51.448;7.646;2022-11-15T02:13:13;11.90;;;5.57;;
5831;SDS011;50943;51.448;7.646;2022-11-15T02:15:40;11.37;;;6.57;;
5831;SDS011;50943;51.448;7.646;2022-11-15T02:18:26;10.50;;;6.50;;
5831;SDS011;50943;51.448;7.646;2022-11-15T02:21:00;10.00;;;5.87;;
5831;SDS011;50943;51.448;7.646;2022-11-15T02:23:42;11.17;;;6.63;;
5831;SDS011;50943;51.448;7.646;2022-11-15T02:29:17;9.77;;;5.50;;
5831;SDS011;50943;51.448;7.646;2022-11-15T02:31:51;9.77;;;6.40;;
5831;SDS011;50943;51.448;7.646;2022-11-15T02:34:23;10.73;;;6.73;;
5831;SDS011;50943;51.448;7.646;2022-11-15T02:36:55;12.23;;;7.60;;
5831;SDS011;50943;51.448;7.646;2022-11-15T02:39:33;11.47;;;7.00;;
5831;SDS011;50943;51.448;7.646;2022-11-15T02:42:02;12.50;;;7.00;;
5831;SDS011;50943;51.448;7.646;2022-11-15T02:44:50;10.80;;;7.10;;
5831;SDS011;50943;51.448;7.646;2022-11-15T02:47:18;10.07;;;6.20;;
5831;SDS011;50943;51.448;7.646;2022-11-15T02:49:46;14.67;;;7.90;;
5831;SDS011;50943;51.448;7.646;2022-11-15T02:52:14;10.07;;;6.30;;
5831;SDS011;50943;51.448;7.646;2022-11-15T02:54:42;15.17;;;7.13;;
5831;SDS011;50943;51.448;7.646;2022-11-15T02:57:10;17.03;;;7.80;;
5831;SDS011;50943;51.448;7.646;2022-11-15T02:59:52;13.90;;;7.10;;
5831;SDS011;50943;51.448;7.646;2022-11-15T03:02:31;14.90;;;6.67;;
5831;SDS011;50943;51.448;7.646;2022-11-15T03:05:04;14.03;;;7.40;;
5831;SDS011;50943;51.448;7.646;2022-11-15T03:07:37;9.70;;;5.83;;
5831;SDS011;50943;51.448;7.646;2022-11-15T03:10:10;10.40;;;6.53;;
5831;SDS011;50943;51.448;7.646;2022-11-15T03:12:40;12.73;;;6.73;;
5831;SDS011;50943;51.448;7.646;2022-11-15T03:15:10;10.80;;;6.60;;
5831;SDS011;50943;51.448;7.646;2022-11-15T03:17:40;11.07;;;6.73;;
5831;SDS011;50943;51.448;7.646;2022-11-15T03:20:09;10.57;;;6.30;;
5831;SDS011;50943;51.448;7.646;2022-11-15T03:22:37;9.93;;;5.33;;
5831;SDS011;50943;51.448;7.646;2022-11-15T03:25:06;7.17;;;4.83;;
5831;SDS011;50943;51.448;7.646;2022-11-15T03:27:36;9.20;;;5.00;;
5831;SDS011;50943;51.448;7.646;2022-11-15T03:30:05;8.00;;;4.57;;
5831;SDS011;50943;51.448;7.646;2022-11-15T03:32:34;9.73;;;4.93;;
5831;SDS011;50943;51.448;7.646;2022-11-15T03:35:04;8.33;;;5.00;;
5831;SDS011;50943;51.448;7.646;2022-11-15T03:37:35;7.70;;;4.87;;
5831;SDS011;50943;51.448;7.646;2022-11-15T03:40:04;10.60;;;5.70;;
5831;SDS011;50943;51.448;7.646;2022-11-15T03:42:32;6.97;;;4.70;;
5831;SDS011;50943;51.448;7.646;2022-11-15T03:45:07;8.97;;;4.90;;
5831;SDS011;50943;51.448;7.646;2022-11-15T03:47:38;6.87;;;4.60;;
5831;SDS011;50943;51.448;7.646;2022-11-15T03:50:08;7.27;;;4.30;;
5831;SDS011;50943;51.448;7.646;2022-11-15T03:52:37;10.30;;;5.77;;
5831;SDS011;50943;51.448;7.646;2022-11-15T03:55:04;6.77;;;4.27;;
5831;SDS011;50943;51.448;7.646;2022-11-15T03:57:33;10.00;;;5.57;;
5831;SDS011;50943;51.448;7.646;2022-11-15T04:00:00;8.83;;;5.33;;
5831;SDS011;50943;51.448;7.646;2022-11-15T04:02:27;6.30;;;4.37;;
5831;SDS011;50943;51.448;7.646;2022-11-15T04:04:53;7.37;;;5.20;;
5831;SDS011;50943;51.448;7.646;2022-11-15T04:07:21;6.93;;;4.70;;
5831;SDS011;50943;51.448;7.646;2022-11-15T04:09:48;7.20;;;4.30;;
5831;SDS011;50943;51.448;7.646;2022-11-15T04:12:30;14.30;;;5.80;;
5831;SDS011;50943;51.448;7.646;2022-11-15T04:14:58;10.63;;;5.37;;
5831;SDS011;50943;51.448;7.646;2022-11-15T04:17:35;8.40;;;5.30;;
5831;SDS011;50943;51.448;7.646;2022-11-15T04:20:03;7.50;;;5.93;;
5831;SDS011;50943;51.448;7.646;2022-11-15T04:22:49;7.53;;;5.20;;
5831;SDS011;50943;51.448;7.646;2022-11-15T04:25:49;8.13;;;5.10;;
5831;SDS011;50943;51.448;7.646;2022-11-15T04:28:16;9.93;;;6.43;;
5831;SDS011;50943;51.448;7.646;2022-11-15T04:30:43;8.73;;;6.37;;
5831;SDS011;50943;51.448;7.646;2022-11-15T04:33:09;10.47;;;7.20;;
5831;SDS011;50943;51.448;7.646;2022-11-15T04:35:36;9.73;;;7.43;;
5831;SDS011;50943;51.448;7.646;2022-11-15T04:38:04;9.90;;;5.80;;
5831;SDS011;50943;51.448;7.646;2022-11-15T04:40:31;8.70;;;6.50;;
5831;SDS011;50943;51.448;7.646;2022-11-15T04:42:57;8.80;;;6.60;;
5831;SDS011;50943;51.448;7.646;2022-11-15T04:45:24;7.40;;;5.30;;
5831;SDS011;50943;51.448;7.646;2022-11-15T04:47:50;8.23;;;6.00;;
5831;SDS011;50943;51.448;7.646;2022-11-15T04:50:17;8.10;;;5.90;;
5831;SDS011;50943;51.448;7.646;2022-11-15T04:52:50;8.37;;;6.03;;
5831;SDS011;50943;51.448;7.646;2022-11-15T04:55:20;8.50;;;5.50;;
5831;SDS011;50943;51.448;7.646;2022-11-15T04:57:46;12.30;;;5.77;;
5831;SDS011;50943;51.448;7.646;2022-11-15T05:00:14;10.30;;;5.60;;
5831;SDS011;50943;51.448;7.646;2022-11-15T05:02:41;6.90;;;4.80;;
5831;SDS011;50943;51.448;7.646;2022-11-15T05:05:26;10.03;;;5.17;;
5831;SDS011;50943;51.448;7.646;2022-11-15T05:07:53;7.37;;;4.77;;
5831;SDS011;50943;51.448;7.646;2022-11-15T05:10:20;7.27;;;5.40;;
5831;SDS011;50943;51.448;7.646;2022-11-15T05:12:47;7.30;;;5.40;;
5831;SDS011;50943;51.448;7.646;2022-11-15T05:15:14;10.37;;;4.63;;
5831;SDS011;50943;51.448;7.646;2022-11-15T05:17:40;6.37;;;4.60;;
5831;SDS011;50943;51.448;7.646;2022-11-15T05:20:07;7.53;;;5.43;;
5831;SDS011;50943;51.448;7.646;2022-11-15T05:22:35;6.93;;;4.40;;
5831;SDS011;50943;51.448;7.646;2022-11-15T05:25:01;5.37;;;4.20;;
5831;SDS011;50943;51.448;7.646;2022-11-15T05:27:30;10.13;;;4.50;;
5831;SDS011;50943;51.448;7.646;2022-11-15T05:29:56;6.60;;;4.70;;
5831;SDS011;50943;51.448;7.646;2022-11-15T05:32:23;8.20;;;4.93;;
5831;SDS011;50943;51.448;7.646;2022-11-15T05:34:50;5.80;;;3.50;;
5831;SDS011;50943;51.448;7.646;2022-11-15T05:37:16;6.83;;;4.33;;
5831;SDS011;50943;51.448;7.646;2022-11-15T05:39:43;7.70;;;4.93;;
5831;SDS011;50943;51.448;7.646;2022-11-15T05:42:11;6.13;;;3.90;;
5831;SDS011;50943;51.448;7.646;2022-11-15T05:44:41;7.90;;;4.03;;
5831;SDS011;50943;51.448;7.646;2022-11-15T05:47:12;7.27;;;4.43;;
5831;SDS011;50943;51.448;7.646;2022-11-15T05:49:40;6.57;;;4.63;;
5831;SDS011;50943;51.448;7.646;2022-11-15T05:52:08;6.13;;;3.60;;
5831;SDS011;50943;51.448;7.646;2022-11-15T05:54:36;5.83;;;3.40;;
5831;SDS011;50943;51.448;7.646;2022-11-15T05:57:03;6.03;;;4.00;;
5831;SDS011;50943;51.448;7.646;2022-11-15T05:59:30;5.23;;;3.43;;
5831;SDS011;50943;51.448;7.646;2022-11-15T06:01:59;6.27;;;3.50;;
5831;SDS011;50943;51.448;7.646;2022-11-15T06:04:26;5.73;;;3.93;;
5831;SDS011;50943;51.448;7.646;2022-11-15T06:06:53;6.40;;;3.67;;
5831;SDS011;50943;51.448;7.646;2022-11-15T06:09:19;5.80;;;3.93;;
5831;SDS011;50943;51.448;7.646;2022-11-15T06:11:46;12.07;;;4.90;;
5831;SDS011;50943;51.448;7.646;2022-11-15T06:14:13;5.40;;;3.93;;
5831;SDS011;50943;51.448;7.646;2022-11-15T06:16:40;7.27;;;3.80;;
5831;SDS011;50943;51.448;7.646;2022-11-15T06:19:08;6.17;;;3.20;;
5831;SDS011;50943;51.448;7.646;2022-11-15T06:21:34;7.37;;;4.20;;
5831;SDS011;50943;51.448;7.646;2022-11-15T06:24:01;6.77;;;3.40;;
5831;SDS011;50943;51.448;7.646;2022-11-15T06:26:27;8.53;;;4.40;;
5831;SDS011;50943;51.448;7.646;2022-11-15T06:28:54;6.90;;;3.80;;
5831;SDS011;50943;51.448;7.646;2022-11-15T06:31:20;7.43;;;3.20;;
5831;SDS011;50943;51.448;7.646;2022-11-15T06:33:47;6.30;;;3.70;;
5831;SDS011;50943;51.448;7.646;2022-11-15T06:36:15;5.80;;;3.17;;
5831;SDS011;50943;51.448;7.646;2022-11-15T06:38:42;6.60;;;3.57;;
5831;SDS011;50943;51.448;7.646;2022-11-15T06:41:10;4.73;;;3.33;;
5831;SDS011;50943;51.448;7.646;2022-11-15T06:43:36;4.13;;;2.43;;
5831;SDS011;50943;51.448;7.646;2022-11-15T06:46:03;4.83;;;2.87;;
5831;SDS011;50943;51.448;7.646;2022-11-15T06:48:31;3.67;;;2.80;;
5831;SDS011;50943;51.448;7.646;2022-11-15T06:51:00;4.53;;;2.40;;
5831;SDS011;50943;51.448;7.646;2022-11-15T06:53:29;3.70;;;2.37;;
5831;SDS011;50943;51.448;7.646;2022-11-15T06:55:57;11.20;;;3.13;;
5831;SDS011;50943;51.448;7.646;2022-11-15T06:58:25;8.23;;;2.43;;
5831;SDS011;50943;51.448;7.646;2022-11-15T07:00:51;3.03;;;2.20;;
5831;SDS011;50943;51.448;7.646;2022-11-15T07:03:18;5.73;;;2.77;;
5831;SDS011;50943;51.448;7.646;2022-11-15T07:05:50;3.37;;;1.23;;
5831;SDS011;50943;51.448;7.646;2022-11-15T07:08:17;2.70;;;1.80;;
5831;SDS011;50943;51.448;7.646;2022-11-15T07:10:45;6.27;;;2.33;;
5831;SDS011;50943;51.448;7.646;2022-11-15T07:13:12;2.80;;;2.10;;
5831;SDS011;50943;51.448;7.646;2022-11-15T07:15:38;4.13;;;2.17;;
5831;SDS011;50943;51.448;7.646;2022-11-15T07:18:06;4.30;;;2.60;;
5831;SDS011;50943;51.448;7.646;2022-11-15T07:20:32;3.03;;;1.97;;
5831;SDS011;50943;51.448;7.646;2022-11-15T07:22:59;6.63;;;2.20;;
5831;SDS011;50943;51.448;7.646;2022-11-15T07:25:27;2.60;;;1.70;;
5831;SDS011;50943;51.448;7.646;2022-11-15T07:27:55;3.03;;;1.90;;
5831;SDS011;50943;51.448;7.646;2022-11-15T07:30:22;4.60;;;1.87;;
5831;SDS011;50943;51.448;7.646;2022-11-15T07:32:51;3.30;;;2.00;;
5831;SDS011;50943;51.448;7.646;2022-11-15T07:35:18;5.03;;;3.63;;
5831;SDS011;50943;51.448;7.646;2022-11-15T07:37:52;4.17;;;2.40;;
5831;SDS011;50943;51.448;7.646;2022-11-15T07:40:19;5.10;;;2.13;;
5831;SDS011;50943;51.448;7.646;2022-11-15T07:42:45;4.10;;;2.20;;
5831;SDS011;50943;51.448;7.646;2022-11-15T07:45:19;3.80;;;1.93;;
5831;SDS011;50943;51.448;7.646;2022-11-15T07:47:46;3.00;;;1.83;;
5831;SDS011;50943;51.448;7.646;2022-11-15T07:50:13;2.07;;;1.43;;
5831;SDS011;50943;51.448;7.646;2022-11-15T07:52:39;2.90;;;1.70;;
5831;SDS011;50943;51.448;7.646;2022-11-15T07:55:06;6.10;;;1.80;;
5831;SDS011;50943;51.448;7.646;2022-11-15T07:57:34;2.90;;;1.67;;
5831;SDS011;50943;51.448;7.646;2022-11-15T08:00:01;1.90;;;1.40;;
5831;SDS011;50943;51.448;7.646;2022-11-15T08:02:29;2.93;;;1.30;;
5831;SDS011;50943;51.448;7.646;2022-11-15T08:04:56;3.60;;;2.00;;
5831;SDS011;50943;51.448;7.646;2022-11-15T08:07:23;2.77;;;1.70;;
5831;SDS011;50943;51.448;7.646;2022-11-15T08:09:49;2.20;;;1.60;;
5831;SDS011;50943;51.448;7.646;2022-11-15T08:12:16;4.33;;;1.80;;
5831;SDS011;50943;51.448;7.646;2022-11-15T08:14:42;4.17;;;1.50;;
5831;SDS011;50943;51.448;7.646;2022-11-15T08:17:09;3.10;;;1.77;;
5831;SDS011;50943;51.448;7.646;2022-11-15T08:19:37;5.73;;;1.40;;
5831;SDS011;50943;51.448;7.646;2022-11-15T08:22:03;3.13;;;1.10;;
5831;SDS011;50943;51.448;7.646;2022-11-15T08:24:30;6.20;;;1.40;;
5831;SDS011;50943;51.448;7.646;2022-11-15T08:26:56;1.80;;;1.37;;
5831;SDS011;50943;51.448;7.646;2022-11-15T08:29:23;4.40;;;1.57;;
5831;SDS011;50943;51.448;7.646;2022-11-15T08:31:49;2.40;;;1.57;;
5831;SDS011;50943;51.448;7.646;2022-11-15T08:34:16;2.30;;;1.57;;
5831;SDS011;50943;51.448;7.646;2022-11-15T08:36:44;1.90;;;1.43;;
5831;SDS011;50943;51.448;7.646;2022-11-15T08:39:10;2.10;;;1.07;;
5831;SDS011;50943;51.448;7.646;2022-11-15T08:41:37;2.87;;;1.20;;
5831;SDS011;50943;51.448;7.646;2022-11-15T08:44:04;1.63;;;1.17;;
5831;SDS011;50943;51.448;7.646;2022-11-15T08:46:30;1.90;;;1.10;;
5831;SDS011;50943;51.448;7.646;2022-11-15T08:48:57;2.80;;;1.37;;
5831;SDS011;50943;51.448;7.646;2022-11-15T08:51:24;2.10;;;1.27;;
5831;SDS011;50943;51.448;7.646;2022-11-15T08:53:51;3.17;;;1.40;;
5831;SDS011;50943;51.448;7.646;2022-11-15T08:56:18;2.60;;;1.60;;
5831;SDS011;50943;51.448;7.646;2022-11-15T08:58:45;3.20;;;1.50;;
5831;SDS011;50943;51.448;7.646;2022-11-15T09:01:15;2.67;;;1.40;;
5831;SDS011;50943;51.448;7.646;2022-11-15T09:03:42;2.67;;;1.20;;
5831;SDS011;50943;51.448;7.646;2022-11-15T09:06:09;2.00;;;1.23;;
5831;SDS011;50943;51.448;7.646;2022-11-15T09:08:36;2.63;;;1.20;;
5831;SDS011;50943;51.448;7.646;2022-11-15T09:11:04;1.80;;;0.93;;
5831;SDS011;50943;51.448;7.646;2022-11-15T09:13:31;2.80;;;1.40;;
5831;SDS011;50943;51.448;7.646;2022-11-15T09:15:58;1.80;;;1.10;;
5831;SDS011;50943;51.448;7.646;2022-11-15T09:18:24;2.03;;;1.10;;
5831;SDS011;50943;51.448;7.646;2022-11-15T09:20:51;2.30;;;1.33;;
5831;SDS011;50943;51.448;7.646;2022-11-15T09:23:21;4.07;;;1.50;;
5831;SDS011;50943;51.448;7.646;2022-11-15T09:25:48;2.00;;;1.20;;
5831;SDS011;50943;51.448;7.646;2022-11-15T09:28:16;1.63;;;1.00;;
5831;SDS011;50943;51.448;7.646;2022-11-15T09:30:42;3.60;;;1.20;;
5831;SDS011;50943;51.448;7.646;2022-11-15T09:33:10;2.37;;;1.27;;
5831;SDS011;50943;51.448;7.646;2022-11-15T09:35:37;1.83;;;1.13;;
5831;SDS011;50943;51.448;7.646;2022-11-15T09:38:04;3.03;;;1.00;;
5831;SDS011;50943;51.448;7.646;2022-11-15T09:40:31;5.20;;;1.60;;
5831;SDS011;50943;51.448;7.646;2022-11-15T09:43:02;3.63;;;1.40;;
5831;SDS011;50943;51.448;7.646;2022-11-15T09:45:37;2.53;;;1.60;;
5831;SDS011;50943;51.448;7.646;2022-11-15T09:48:11;2.60;;;1.63;;
5831;SDS011;50943;51.448;7.646;2022-11-15T09:50:46;3.00;;;1.20;;
5831;SDS011;50943;51.448;7.646;2022-11-15T09:53:17;2.03;;;1.20;;
5831;SDS011;50943;51.448;7.646;2022-11-15T09:55:50;2.83;;;1.50;;
5831;SDS011;50943;51.448;7.646;2022-11-15T09:58:21;3.13;;;1.20;;
5831;SDS011;50943;51.448;7.646;2022-11-15T10:00:54;3.37;;;1.30;;
5831;SDS011;50943;51.448;7.646;2022-11-15T10:03:25;3.10;;;1.03;;
5831;SDS011;50943;51.448;7.646;2022-11-15T10:05:54;6.20;;;1.30;;
5831;SDS011;50943;51.448;7.646;2022-11-15T10:08:46;2.03;;;1.20;;
5831;SDS011;50943;51.448;7.646;2022-11-15T10:11:17;2.50;;;1.43;;
5831;SDS011;50943;51.448;7.646;2022-11-15T10:13:46;3.43;;;1.30;;
5831;SDS011;50943;51.448;7.646;2022-11-15T10:16:20;3.27;;;1.20;;
5831;SDS011;50943;51.448;7.646;2022-11-15T10:19:00;2.40;;;1.30;;
5831;SDS011;50943;51.448;7.646;2022-11-15T10:21:32;1.30;;;1.00;;
5831;SDS011;50943;51.448;7.646;2022-11-15T10:24:10;2.53;;;1.20;;
5831;SDS011;50943;51.448;7.646;2022-11-15T10:26:38;1.40;;;1.00;;
5831;SDS011;50943;51.448;7.646;2022-11-15T10:29:05;2.33;;;1.00;;
5831;SDS011;50943;51.448;7.646;2022-11-15T10:31:32;2.70;;;1.40;;
5831;SDS011;50943;51.448;7.646;2022-11-15T10:34:03;1.57;;;1.20;;
5831;SDS011;50943;51.448;7.646;2022-11-15T10:36:36;4.10;;;1.53;;
5831;SDS011;50943;51.448;7.646;2022-11-15T10:39:03;2.10;;;1.23;;
5831;SDS011;50943;51.448;7.646;2022-11-15T10:41:35;2.77;;;1.07;;
5831;SDS011;50943;51.448;7.646;2022-11-15T10:44:07;11.13;;;1.40;;
5831;SDS011;50943;51.448;7.646;2022-11-15T10:46:39;2.90;;;1.47;;
5831;SDS011;50943;51.448;7.646;2022-11-15T10:49:12;3.57;;;1.47;;
5831;SDS011;50943;51.448;7.646;2022-11-15T10:51:40;3.50;;;2.00;;
5831;SDS011;50943;51.448;7.646;2022-11-15T10:54:09;2.00;;;1.30;;
5831;SDS011;50943;51.448;7.646;2022-11-15T10:56:36;4.43;;;1.57;;
5831;SDS011;50943;51.448;7.646;2022-11-15T10:59:03;3.53;;;1.33;;
5831;SDS011;50943;51.448;7.646;2022-11-15T11:01:30;2.13;;;1.40;;
5831;SDS011;50943;51.448;7.646;2022-11-15T11:04:01;3.20;;;1.30;;
5831;SDS011;50943;51.448;7.646;2022-11-15T11:06:29;4.40;;;1.53;;
5831;SDS011;50943;51.448;7.646;2022-11-15T11:08:56;2.90;;;1.50;;
5831;SDS011;50943;51.448;7.646;2022-11-15T11:11:24;2.00;;;1.10;;
5831;SDS011;50943;51.448;7.646;2022-11-15T11:13:51;3.03;;;1.47;;
5831;SDS011;50943;51.448;7.646;2022-11-15T11:16:26;2.30;;;1.27;;
5831;SDS011;50943;51.448;7.646;2022-11-15T11:19:14;1.30;;;0.90;;
5831;SDS011;50943;51.448;7.646;2022-11-15T11:21:55;2.70;;;1.30;;
5831;SDS011;50943;51.448;7.646;2022-11-15T11:24:29;4.47;;;1.47;;
5831;SDS011;50943;51.448;7.646;2022-11-15T11:27:08;3.20;;;1.30;;
5831;SDS011;50943;51.448;7.646;2022-11-15T11:29:44;4.00;;;1.60;;
5831;SDS011;50943;51.448;7.646;2022-11-15T11:32:23;3.50;;;1.23;;
5831;SDS011;50943;51.448;7.646;2022-11-15T11:35:02;2.50;;;1.40;;
5831;SDS011;50943;51.448;7.646;2022-11-15T11:37:34;3.40;;;1.10;;
5831;SDS011;50943;51.448;7.646;2022-11-15T11:40:07;2.43;;;1.23;;
5831;SDS011;50943;51.448;7.646;2022-11-15T11:42:41;2.50;;;1.40;;
5831;SDS011;50943;51.448;7.646;2022-11-15T11:45:15;3.97;;;1.07;;
5831;SDS011;50943;51.448;7.646;2022-11-15T11:47:46;2.40;;;0.90;;
5831;SDS011;50943;51.448;7.646;2022-11-15T11:50:15;3.20;;;1.30;;
5831;SDS011;50943;51.448;7.646;2022-11-15T11:52:48;4.53;;;1.03;;
5831;SDS011;50943;51.448;7.646;2022-11-15T11:55:21;2.33;;;1.30;;
5831;SDS011;50943;51.448;7.646;2022-11-15T11:57:50;2.30;;;1.23;;
5831;SDS011;50943;51.448;7.646;2022-11-15T12:00:22;2.10;;;1.30;;
5831;SDS011;50943;51.448;7.646;2022-11-15T12:02:57;2.03;;;1.10;;
5831;SDS011;50943;51.448;7.646;2022-11-15T12:05:32;5.00;;;1.17;;
5831;SDS011;50943;51.448;7.646;2022-11-15T12:08:04;2.40;;;1.40;;
5831;SDS011;50943;51.448;7.646;2022-11-15T12:10:39;1.97;;;1.00;;
5831;SDS011;50943;51.448;7.646;2022-11-15T12:13:08;1.10;;;0.80;;
5831;SDS011;50943;51.448;7.646;2022-11-15T12:15:39;1.60;;;1.10;;
5831;SDS011;50943;51.448;7.646;2022-11-15T12:18:08;2.23;;;1.20;;
5831;SDS011;50943;51.448;7.646;2022-11-15T12:20:41;3.87;;;1.00;;
5831;SDS011;50943;51.448;7.646;2022-11-15T12:23:17;1.27;;;0.83;;
5831;SDS011;50943;51.448;7.646;2022-11-15T12:25:48;7.13;;;1.20;;
5831;SDS011;50943;51.448;7.646;2022-11-15T12:28:17;1.13;;;0.90;;
5831;SDS011;50943;51.448;7.646;2022-11-15T12:30:48;2.60;;;1.37;;
5831;SDS011;50943;51.448;7.646;2022-11-15T12:33:30;2.40;;;1.00;;
5831;SDS011;50943;51.448;7.646;2022-11-15T12:36:00;1.53;;;1.03;;
5831;SDS011;50943;51.448;7.646;2022-11-15T12:41:16;2.50;;;1.03;;
5831;SDS011;50943;51.448;7.646;2022-11-15T12:43:44;1.73;;;1.00;;
5831;SDS011;50943;51.448;7.646;2022-11-15T12:46:13;1.70;;;0.90;;
5831;SDS011;50943;51.448;7.646;2022-11-15T12:48:50;1.53;;;1.00;;
5831;SDS011;50943;51.448;7.646;2022-11-15T12:52:03;2.03;;;0.93;;
5831;SDS011;50943;51.448;7.646;2022-11-15T12:54:51;1.57;;;1.03;;
5831;SDS011;50943;51.448;7.646;2022-11-15T12:57:32;3.83;;;1.00;;
5831;SDS011;50943;51.448;7.646;2022-11-15T13:03:17;5.27;;;1.10;;
5831;SDS011;50943;51.448;7.646;2022-11-15T13:05:55;5.83;;;1.07;;
5831;SDS011;50943;51.448;7.646;2022-11-15T13:08:41;1.77;;;1.00;;
5831;SDS011;50943;51.448;7.646;2022-11-15T13:14:40;5.73;;;1.20;;
5831;SDS011;50943;51.448;7.646;2022-11-15T13:17:28;2.57;;;1.17;;
5831;SDS011;50943;51.448;7.646;2022-11-15T13:20:00;1.87;;;1.10;;
5831;SDS011;50943;51.448;7.646;2022-11-15T13:22:38;4.87;;;0.90;;
5831;SDS011;50943;51.448;7.646;2022-11-15T13:25:23;4.43;;;1.10;;
5831;SDS011;50943;51.448;7.646;2022-11-15T13:28:20;2.27;;;0.73;;
5831;SDS011;50943;51.448;7.646;2022-11-15T13:30:49;3.07;;;1.20;;
5831;SDS011;50943;51.448;7.646;2022-11-15T13:33:17;3.70;;;1.20;;
5831;SDS011;50943;51.448;7.646;2022-11-15T13:35:46;3.50;;;1.07;;
5831;SDS011;50943;51.448;7.646;2022-11-15T13:38:17;7.13;;;1.10;;
5831;SDS011;50943;51.448;7.646;2022-11-15T13:40:47;2.60;;;0.90;;
5831;SDS011;50943;51.448;7.646;2022-11-15T13:43:17;2.23;;;1.00;;
5831;SDS011;50943;51.448;7.646;2022-11-15T13:46:03;2.10;;;1.10;;
5831;SDS011;50943;51.448;7.646;2022-11-15T13:48:31;3.07;;;1.10;;
5831;SDS011;50943;51.448;7.646;2022-11-15T13:50:58;3.27;;;1.10;;
5831;SDS011;50943;51.448;7.646;2022-11-15T13:53:25;2.60;;;1.20;;
5831;SDS011;50943;51.448;7.646;2022-11-15T13:55:53;2.10;;;1.03;;
5831;SDS011;50943;51.448;7.646;2022-11-15T13:58:20;4.30;;;1.47;;
5831;SDS011;50943;51.448;7.646;2022-11-15T14:00:47;2.83;;;1.10;;
5831;SDS011;50943;51.448;7.646;2022-11-15T14:03:16;4.70;;;1.67;;
5831;SDS011;50943;51.448;7.646;2022-11-15T14:05:44;4.40;;;1.37;;
5831;SDS011;50943;51.448;7.646;2022-11-15T14:08:20;2.00;;;1.10;;
5831;SDS011;50943;51.448;7.646;2022-11-15T14:10:48;4.40;;;1.20;;
5831;SDS011;50943;51.448;7.646;2022-11-15T14:13:33;2.53;;;1.30;;
5831;SDS011;50943;51.448;7.646;2022-11-15T14:16:13;5.30;;;1.63;;
5831;SDS011;50943;51.448;7.646;2022-11-15T14:18:42;2.07;;;1.20;;
5831;SDS011;50943;51.448;7.646;2022-11-15T14:21:10;5.07;;;1.60;;
5831;SDS011;50943;51.448;7.646;2022-11-15T14:23:37;3.03;;;1.27;;
5831;SDS011;50943;51.448;7.646;2022-11-15T14:26:04;4.37;;;1.20;;
5831;SDS011;50943;51.448;7.646;2022-11-15T14:28:37;2.00;;;1.27;;
5831;SDS011;50943;51.448;7.646;2022-11-15T14:31:06;4.90;;;1.00;;
5831;SDS011;50943;51.448;7.646;2022-11-15T14:33:37;5.37;;;1.50;;
5831;SDS011;50943;51.448;7.646;2022-11-15T14:36:05;7.63;;;1.40;;
5831;SDS011;50943;51.448;7.646;2022-11-15T14:38:36;2.67;;;1.50;;
5831;SDS011;50943;51.448;7.646;2022-11-15T14:41:03;5.53;;;1.80;;
5831;SDS011;50943;51.448;7.646;2022-11-15T14:43:32;3.03;;;1.40;;
5831;SDS011;50943;51.448;7.646;2022-11-15T14:45:58;3.80;;;1.87;;
5831;SDS011;50943;51.448;7.646;2022-11-15T14:48:25;4.47;;;2.23;;
5831;SDS011;50943;51.448;7.646;2022-11-15T14:50:52;6.13;;;2.70;;
5831;SDS011;50943;51.448;7.646;2022-11-15T14:53:18;6.03;;;2.60;;
5831;SDS011;50943;51.448;7.646;2022-11-15T14:55:45;2.63;;;1.50;;
5831;SDS011;50943;51.448;7.646;2022-11-15T14:58:12;1.93;;;1.50;;
5831;SDS011;50943;51.448;7.646;2022-11-15T15:00:41;2.80;;;1.80;;
5831;SDS011;50943;51.448;7.646;2022-11-15T15:03:08;6.00;;;2.00;;
5831;SDS011;50943;51.448;7.646;2022-11-15T15:05:35;2.87;;;2.23;;
5831;SDS011;50943;51.448;7.646;2022-11-15T15:08:04;5.33;;;1.97;;
5831;SDS011;50943;51.448;7.646;2022-11-15T15:10:31;5.73;;;2.80;;
5831;SDS011;50943;51.448;7.646;2022-11-15T15:12:59;3.67;;;2.10;;
5831;SDS011;50943;51.448;7.646;2022-11-15T15:15:29;6.50;;;2.67;;
5831;SDS011;50943;51.448;7.646;2022-11-15T15:18:00;5.67;;;2.20;;
5831;SDS011;50943;51.448;7.646;2022-11-15T15:20:26;4.43;;;2.37;;
5831;SDS011;50943;51.448;7.646;2022-11-15T15:22:53;2.83;;;2.00;;
5831;SDS011;50943;51.448;7.646;2022-11-15T15:25:21;5.07;;;2.20;;